KEIK

Details ICAO KEIK
Name ERIE MUNICIPAL
Region United States
Timezone America/Denver (UTC-6.0)
Plans Departing 12
Arriving 6
Stats Elevation 5,130 ft / 1,564 m (AMSL)
Location 40.010220° -105.047918°
Runways 2
Magnetic Variation 8.226° E
Sunrise 2018-05-22 11:40:32 UTC / 2018-05-22 05:40:32 Local
Sunset 2018-05-23 02:16:05 UTC / 2018-05-22 20:16:05 Local
Advertisement - Login to hide

Runways

ID Width Length Bearing (true) Bearing (mag) Surface Threshold Offset Overrun Length
09 50 ft / 15 m 2,246 ft / 685 m 105.47° 97.24° Asphalt 0 ft / 0 m 0 ft / 0 m
15 60 ft / 18 m 4,706 ft / 1,434 m 167.36° 159.13° Concrete 0 ft / 0 m 0 ft / 0 m
27 50 ft / 15 m 2,246 ft / 685 m 285.47° 277.24° Asphalt 0 ft / 0 m 0 ft / 0 m
33 60 ft / 18 m 4,706 ft / 1,434 m 347.37° 339.14° Concrete 0 ft / 0 m 0 ft / 0 m

Map

Weather


0- 5 10 15 20 25 30 35+ Temperature / ° C

Clouds and Precipitation
Forecast for 2018-05-23 06:00 UTC. Updated a minute ago

Ground ~20,000 ft ~40,000 ft Winds

METAR

KEIK 230512Z AUTO 15003KT 10SM SCT110 14/11 A3005 RMK AO2 T01400106

TAF

Not found

Frequencies

Recorded 133.82 MHz AWOS 3
Approach 126.10 MHz DENVER APP/DEP
Unicom 123.00 MHz CTAF/UNICOM
Warning: Do not use this data for real-world aviation or navigation. No guarantee of current accuracy is given.